createdAt,value
2024-04-22T00:04:39.011Z,86.36
2024-04-22T00:11:25.716Z,86.17
2024-04-22T00:17:53.975Z,86.33
2024-04-22T00:23:45.314Z,86.26
2024-04-22T00:30:20.470Z,86.05
2024-04-22T00:41:17.582Z,85.86
2024-04-22T00:47:18.765Z,85.98
2024-04-22T00:53:06.765Z,85.68
2024-04-22T00:58:58.829Z,86.13
2024-04-22T01:04:38.014Z,86.09
2024-04-22T01:10:29.648Z,86.10
2024-04-22T01:16:30.854Z,86.10
2024-04-22T01:22:09.884Z,86.04
2024-04-22T01:28:35.826Z,86.34
2024-04-22T01:34:26.906Z,86.42
2024-04-22T01:40:07.391Z,86.63
2024-04-22T01:45:29.916Z,86.75
2024-04-22T01:50:52.502Z,86.60
2024-04-22T01:56:16.831Z,87.07
2024-04-22T02:01:40.189Z,86.86
2024-04-22T02:07:24.542Z,86.95
2024-04-22T02:13:44.657Z,86.77
2024-04-22T02:19:43.698Z,86.67
2024-04-22T02:24:58.063Z,86.45
2024-04-22T02:30:50.354Z,86.02
2024-04-22T02:36:49.251Z,85.69
2024-04-22T02:42:52.878Z,86.03
2024-04-22T02:48:32.294Z,85.93
2024-04-22T02:55:06.105Z,85.64
2024-04-22T03:01:08.642Z,85.28
2024-04-22T03:07:16.364Z,85.39
2024-04-22T03:12:45.626Z,85.17
2024-04-22T03:18:38.342Z,85.15
2024-04-22T03:24:38.302Z,84.90
2024-04-22T03:31:11.171Z,85.03
2024-04-22T03:37:15.369Z,85.05
2024-04-22T03:43:19.050Z,85.14
2024-04-22T03:49:01.164Z,85.38
2024-04-22T03:54:35.656Z,85.47
2024-04-22T04:00:01.543Z,85.90
2024-04-22T04:05:12.532Z,86.12
2024-04-22T04:10:44.046Z,86.43
2024-04-22T04:15:46.344Z,86.53
2024-04-22T04:21:22.679Z,86.78
2024-04-22T04:27:18.215Z,87.05
2024-04-22T04:32:26.037Z,86.93
2024-04-22T04:38:20.840Z,87.19
2024-04-22T04:43:32.645Z,87.44
2024-04-22T04:49:20.681Z,87.40
2024-04-22T04:54:50.048Z,87.31
2024-04-22T05:00:24.875Z,87.35
2024-04-22T05:06:19.264Z,87.52
2024-04-22T05:11:55.451Z,87.99
2024-04-22T05:17:09.995Z,87.94
2024-04-22T05:22:19.922Z,87.74
2024-04-22T05:27:48.899Z,87.48
2024-04-22T05:33:30.730Z,87.43
2024-04-22T05:39:44.565Z,87.71
2024-04-22T05:45:12.337Z,87.69
2024-04-22T05:50:57.682Z,87.48
2024-04-22T05:56:14.383Z,87.34
2024-04-22T06:02:03.623Z,87.52
2024-04-22T06:07:14.494Z,87.66
2024-04-22T06:12:20.045Z,87.97
2024-04-22T06:17:43.200Z,87.48
2024-04-22T06:22:48.135Z,87.73
2024-04-22T06:28:04.591Z,87.29
2024-04-22T06:33:07.017Z,87.11
2024-04-22T06:38:09.447Z,87.37
2024-04-22T06:43:32.613Z,87.36
2024-04-22T06:48:42.813Z,87.58
2024-04-22T06:53:46.515Z,87.49
2024-04-22T06:58:54.799Z,87.74
2024-04-22T07:04:06.333Z,87.63
2024-04-22T07:09:17.168Z,87.63
2024-04-22T07:14:23.062Z,87.02
2024-04-22T07:19:46.093Z,87.26
2024-04-22T07:24:57.220Z,86.95
2024-04-22T07:30:11.938Z,87.12
2024-04-22T07:35:15.277Z,86.96
2024-04-22T07:40:20.036Z,86.71
2024-04-22T07:45:26.987Z,86.25
2024-04-22T07:50:33.555Z,85.76
2024-04-22T07:55:37.418Z,85.36
2024-04-22T08:00:51.504Z,85.05
2024-04-22T08:06:04.546Z,84.66
2024-04-22T08:11:07.228Z,84.11
2024-04-22T08:16:09.793Z,83.74
2024-04-22T08:21:13.193Z,82.90
2024-04-22T08:26:15.385Z,82.91
2024-04-22T08:31:20.971Z,82.23
2024-04-22T08:36:24.641Z,81.52
2024-04-22T08:41:52.318Z,81.97
2024-04-22T08:46:54.695Z,80.54
2024-04-22T08:51:58.691Z,79.50
2024-04-22T08:57:11.055Z,78.57
2024-04-22T09:02:15.767Z,78.21
2024-04-22T09:07:21.815Z,78.71
2024-04-22T09:12:24.703Z,78.65
2024-04-22T09:17:31.039Z,76.94
2024-04-22T09:22:36.398Z,76.03
2024-04-22T09:27:46.051Z,76.21
2024-04-22T09:32:49.609Z,76.26
2024-04-22T09:38:02.051Z,76.36
2024-04-22T09:43:05.435Z,77.19
2024-04-22T09:48:20.948Z,76.95
2024-04-22T09:53:44.990Z,75.96
2024-04-22T09:58:50.064Z,76.02
2024-04-22T10:04:00.329Z,76.58
2024-04-22T10:09:06.810Z,76.27
2024-04-22T10:14:20.493Z,75.65
2024-04-22T10:19:23.059Z,73.71
2024-04-22T10:24:49.455Z,72.75
2024-04-22T10:30:11.170Z,72.07
2024-04-22T10:35:16.838Z,71.01
2024-04-22T10:40:19.145Z,69.08
2024-04-22T10:45:24.531Z,68.23
2024-04-22T10:50:47.474Z,68.47
2024-04-22T10:56:10.246Z,69.03
2024-04-22T11:01:13.120Z,68.37
2024-04-22T11:06:15.650Z,67.13
2024-04-22T11:11:19.773Z,67.19
2024-04-22T11:16:28.624Z,66.78
2024-04-22T11:21:34.090Z,66.55
2024-04-22T11:26:51.602Z,66.29
2024-04-22T11:31:54.183Z,66.15
2024-04-22T11:36:57.866Z,65.34
2024-04-22T11:42:00.854Z,65.16
2024-04-22T11:47:07.118Z,64.63
2024-04-22T11:52:12.697Z,65.37
2024-04-22T11:57:17.142Z,65.64
2024-04-22T12:02:19.499Z,63.82
2024-04-22T12:07:22.728Z,63.74
2024-04-22T12:12:24.981Z,64.47
2024-04-22T12:17:30.210Z,64.73
2024-04-22T12:22:41.732Z,64.73
2024-04-22T12:28:05.838Z,64.86
2024-04-22T12:33:16.750Z,65.10
2024-04-22T12:38:22.137Z,65.46
2024-04-22T12:43:24.893Z,65.24
2024-04-22T12:49:06.358Z,65.44
2024-04-22T12:54:17.496Z,65.36
2024-04-22T12:59:22.473Z,66.03
2024-04-22T13:04:30.401Z,66.44
2024-04-22T13:09:36.033Z,66.75
2024-04-22T13:14:38.324Z,67.01
2024-04-22T13:19:49.044Z,67.15
2024-04-22T13:24:51.582Z,67.28
2024-04-22T13:29:53.790Z,67.22
2024-04-22T13:34:56.396Z,67.29
2024-04-22T13:39:58.602Z,66.86
2024-04-22T13:45:01.355Z,66.69
2024-04-22T13:50:04.179Z,66.49
2024-04-22T13:55:09.653Z,66.60
2024-04-22T14:00:14.685Z,66.43
2024-04-22T14:05:17.584Z,65.05
2024-04-22T14:10:20.117Z,65.48
2024-04-22T14:15:40.262Z,65.16
2024-04-22T14:20:51.703Z,65.50
2024-04-22T14:25:55.169Z,66.59
2024-04-22T14:30:57.190Z,68.14
2024-04-22T14:36:00.369Z,70.15
2024-04-22T14:41:12.037Z,72.15
2024-04-22T14:46:28.979Z,73.83
2024-04-22T14:51:32.721Z,74.92
2024-04-22T14:56:35.787Z,76.15
2024-04-22T15:01:46.711Z,77.36
2024-04-22T15:06:59.485Z,78.10
2024-04-22T15:12:11.165Z,78.76
2024-04-22T15:17:14.602Z,79.06
2024-04-22T15:22:17.684Z,78.89
2024-04-22T15:27:23.970Z,79.16
2024-04-22T15:32:29.862Z,79.33
2024-04-22T15:37:32.717Z,79.06
2024-04-22T15:42:58.053Z,79.06
2024-04-22T15:48:00.490Z,78.36
2024-04-22T15:53:19.651Z,78.51
2024-04-22T15:58:27.932Z,78.53
2024-04-22T16:03:37.030Z,78.36
2024-04-22T16:08:49.624Z,77.08
2024-04-22T16:13:59.300Z,76.73
2024-04-22T16:19:04.554Z,77.61
2024-04-22T16:24:07.329Z,78.64
2024-04-22T16:29:22.328Z,79.75
2024-04-22T16:34:25.809Z,81.40
2024-04-22T16:39:28.005Z,82.02
2024-04-22T16:44:31.739Z,82.41
2024-04-22T16:49:37.221Z,82.89
2024-04-22T16:54:40.227Z,82.87
2024-04-22T16:59:51.457Z,83.07
2024-04-22T17:04:56.595Z,83.29
2024-04-22T17:10:06.106Z,82.99
2024-04-22T17:15:17.851Z,82.88
2024-04-22T17:20:22.737Z,82.39
2024-04-22T17:25:25.342Z,82.39
2024-04-22T17:30:27.590Z,82.54
2024-04-22T17:35:32.291Z,82.42
2024-04-22T17:40:34.962Z,82.51
2024-04-22T17:45:40.631Z,82.76
2024-04-22T17:50:45.102Z,83.11
2024-04-22T17:55:50.536Z,83.30
2024-04-22T18:00:52.659Z,83.64
2024-04-22T18:05:58.138Z,84.06
2024-04-22T18:11:03.410Z,84.72
2024-04-22T18:16:14.605Z,85.12
2024-04-22T18:21:29.877Z,85.64
2024-04-22T18:26:32.043Z,85.94
2024-04-22T18:31:37.351Z,86.08
2024-04-22T18:36:39.402Z,86.18
2024-04-22T18:41:44.526Z,86.94
2024-04-22T18:46:46.890Z,87.29
2024-04-22T18:51:49.988Z,87.64
2024-04-22T18:56:52.676Z,87.84
2024-04-22T19:02:13.288Z,88.41
2024-04-22T19:07:18.560Z,88.75
2024-04-22T19:12:20.894Z,88.50
2024-04-22T19:17:44.833Z,88.62
2024-04-22T19:22:49.855Z,89.52
2024-04-22T19:27:52.950Z,90.49
2024-04-22T19:32:59.984Z,91.48
2024-04-22T19:38:10.373Z,91.82
2024-04-22T19:43:12.747Z,92.28
2024-04-22T19:48:17.984Z,92.68
2024-04-22T19:53:42.718Z,93.38
2024-04-22T19:58:45.255Z,94.14
2024-04-22T20:03:48.393Z,94.53
2024-04-22T20:08:58.998Z,94.82
2024-04-22T20:14:01.290Z,94.67
2024-04-22T20:19:05.975Z,94.77
2024-04-22T20:24:08.400Z,95.10
2024-04-22T20:29:19.544Z,95.17
2024-04-22T20:34:30.614Z,95.28
2024-04-22T20:39:53.119Z,95.56
2024-04-22T20:45:04.356Z,95.59
2024-04-22T20:50:14.899Z,95.33
2024-04-22T20:55:19.731Z,95.31
2024-04-22T21:00:28.051Z,95.57
2024-04-22T21:05:30.595Z,95.88
2024-04-22T21:10:56.290Z,96.08
2024-04-22T21:15:58.889Z,96.31
2024-04-22T21:21:45.053Z,96.14
2024-04-22T21:26:47.477Z,96.02
2024-04-22T21:31:56.462Z,96.37
2024-04-22T21:37:06.150Z,96.28
2024-04-22T21:42:23.777Z,96.61
2024-04-22T21:47:26.159Z,96.68
2024-04-22T21:52:28.872Z,97.02
2024-04-22T21:58:08.547Z,97.39
2024-04-22T22:03:48.411Z,97.77
2024-04-22T22:09:02.012Z,97.42
2024-04-22T22:14:46.340Z,97.48
2024-04-22T22:20:16.690Z,97.36
2024-04-22T22:25:50.788Z,96.79
2024-04-22T22:31:36.363Z,96.06
2024-04-22T22:37:29.124Z,95.74
2024-04-22T22:43:36.844Z,95.59
2024-04-22T22:49:01.820Z,95.99
2024-04-22T22:54:39.350Z,95.77
2024-04-22T22:59:41.536Z,95.92
2024-04-22T23:05:33.831Z,96.19
2024-04-22T23:11:03.886Z,96.58
2024-04-22T23:17:17.206Z,97.23
2024-04-22T23:23:47.610Z,97.03
2024-04-22T23:29:45.261Z,97.14
2024-04-22T23:35:09.439Z,97.31
2024-04-22T23:41:12.391Z,97.61
2024-04-22T23:47:23.122Z,97.89
2024-04-22T23:52:54.741Z,98.20
2024-04-22T23:59:09.208Z,99.00
